sensor_id;sensor_type;location;lat;lon;timestamp;temperature;humidity
14873;DHT22;7528;48.576;19.122;2023-11-25T00:03:49;7.20;67.40
14873;DHT22;7528;48.576;19.122;2023-11-25T00:08:53;7.20;67.80
14873;DHT22;7528;48.576;19.122;2023-11-25T00:13:55;7.10;67.50
14873;DHT22;7528;48.576;19.122;2023-11-25T00:18:58;7.10;67.80
14873;DHT22;7528;48.576;19.122;2023-11-25T00:24:02;7.00;68.00
14873;DHT22;7528;48.576;19.122;2023-11-25T00:29:04;7.00;68.50
14873;DHT22;7528;48.576;19.122;2023-11-25T00:34:07;7.00;68.40
14873;DHT22;7528;48.576;19.122;2023-11-25T00:39:10;6.90;68.40
14873;DHT22;7528;48.576;19.122;2023-11-25T00:44:13;6.80;68.20
14873;DHT22;7528;48.576;19.122;2023-11-25T00:49:15;6.70;68.40
14873;DHT22;7528;48.576;19.122;2023-11-25T00:54:19;6.70;68.50
14873;DHT22;7528;48.576;19.122;2023-11-25T00:59:21;6.60;68.30
14873;DHT22;7528;48.576;19.122;2023-11-25T01:04:24;6.50;68.30
14873;DHT22;7528;48.576;19.122;2023-11-25T01:09:27;6.50;68.40
14873;DHT22;7528;48.576;19.122;2023-11-25T01:14:31;6.50;68.60
14873;DHT22;7528;48.576;19.122;2023-11-25T01:19:35;6.50;68.60
14873;DHT22;7528;48.576;19.122;2023-11-25T01:24:39;6.50;68.30
14873;DHT22;7528;48.576;19.122;2023-11-25T01:29:41;6.60;67.30
14873;DHT22;7528;48.576;19.122;2023-11-25T01:34:44;6.50;66.30
14873;DHT22;7528;48.576;19.122;2023-11-25T01:39:51;6.50;66.90
14873;DHT22;7528;48.576;19.122;2023-11-25T01:44:54;6.50;67.00
14873;DHT22;7528;48.576;19.122;2023-11-25T01:49:57;6.50;67.10
14873;DHT22;7528;48.576;19.122;2023-11-25T01:55:00;6.50;66.20
14873;DHT22;7528;48.576;19.122;2023-11-25T02:00:05;6.50;66.20
14873;DHT22;7528;48.576;19.122;2023-11-25T02:05:12;6.50;66.70
14873;DHT22;7528;48.576;19.122;2023-11-25T02:10:16;6.40;66.80
14873;DHT22;7528;48.576;19.122;2023-11-25T02:15:20;6.40;67.10
14873;DHT22;7528;48.576;19.122;2023-11-25T02:20:30;6.40;66.70
14873;DHT22;7528;48.576;19.122;2023-11-25T02:25:34;6.40;66.10
14873;DHT22;7528;48.576;19.122;2023-11-25T02:30:36;6.50;66.90
14873;DHT22;7528;48.576;19.122;2023-11-25T02:35:38;6.50;66.60
14873;DHT22;7528;48.576;19.122;2023-11-25T02:40:43;6.60;66.20
14873;DHT22;7528;48.576;19.122;2023-11-25T02:45:46;6.70;65.60
14873;DHT22;7528;48.576;19.122;2023-11-25T02:50:49;6.70;65.60
14873;DHT22;7528;48.576;19.122;2023-11-25T02:55:52;6.70;64.70
14873;DHT22;7528;48.576;19.122;2023-11-25T03:00:55;6.70;64.10
14873;DHT22;7528;48.576;19.122;2023-11-25T03:06:02;6.70;63.50
14873;DHT22;7528;48.576;19.122;2023-11-25T03:11:08;6.60;64.10
14873;DHT22;7528;48.576;19.122;2023-11-25T03:16:13;6.60;63.80
14873;DHT22;7528;48.576;19.122;2023-11-25T03:21:17;6.50;64.40
14873;DHT22;7528;48.576;19.122;2023-11-25T03:26:22;6.50;65.10
14873;DHT22;7528;48.576;19.122;2023-11-25T03:31:25;6.50;65.60
14873;DHT22;7528;48.576;19.122;2023-11-25T03:36:28;6.50;65.30
14873;DHT22;7528;48.576;19.122;2023-11-25T03:41:32;6.50;65.30
14873;DHT22;7528;48.576;19.122;2023-11-25T03:46:36;6.40;65.20
14873;DHT22;7528;48.576;19.122;2023-11-25T03:51:39;6.40;62.50
14873;DHT22;7528;48.576;19.122;2023-11-25T03:56:43;6.50;63.10
14873;DHT22;7528;48.576;19.122;2023-11-25T04:01:46;6.50;63.10
14873;DHT22;7528;48.576;19.122;2023-11-25T04:06:48;6.50;63.70
14873;DHT22;7528;48.576;19.122;2023-11-25T04:11:52;6.50;63.30
14873;DHT22;7528;48.576;19.122;2023-11-25T04:16:54;6.60;63.20
14873;DHT22;7528;48.576;19.122;2023-11-25T04:21:57;6.70;62.50
14873;DHT22;7528;48.576;19.122;2023-11-25T04:27:03;6.70;61.60
14873;DHT22;7528;48.576;19.122;2023-11-25T04:32:06;6.80;61.90
14873;DHT22;7528;48.576;19.122;2023-11-25T04:37:10;6.80;63.00
14873;DHT22;7528;48.576;19.122;2023-11-25T04:42:13;6.70;64.00
14873;DHT22;7528;48.576;19.122;2023-11-25T04:47:16;6.80;63.40
14873;DHT22;7528;48.576;19.122;2023-11-25T04:52:18;6.70;63.10
14873;DHT22;7528;48.576;19.122;2023-11-25T04:57:22;6.60;62.20
14873;DHT22;7528;48.576;19.122;2023-11-25T05:02:24;6.60;62.20
14873;DHT22;7528;48.576;19.122;2023-11-25T05:07:27;6.60;62.30
14873;DHT22;7528;48.576;19.122;2023-11-25T05:12:30;6.50;63.00
14873;DHT22;7528;48.576;19.122;2023-11-25T05:17:33;6.50;63.70
14873;DHT22;7528;48.576;19.122;2023-11-25T05:22:35;6.40;64.00
14873;DHT22;7528;48.576;19.122;2023-11-25T05:27:39;6.40;64.50
14873;DHT22;7528;48.576;19.122;2023-11-25T05:32:42;6.40;64.90
14873;DHT22;7528;48.576;19.122;2023-11-25T05:37:44;6.40;64.50
14873;DHT22;7528;48.576;19.122;2023-11-25T05:42:48;6.40;64.60
14873;DHT22;7528;48.576;19.122;2023-11-25T05:47:54;6.40;64.60
14873;DHT22;7528;48.576;19.122;2023-11-25T05:52:58;6.30;65.70
14873;DHT22;7528;48.576;19.122;2023-11-25T05:58:02;6.20;65.90
14873;DHT22;7528;48.576;19.122;2023-11-25T06:03:04;6.20;66.20
14873;DHT22;7528;48.576;19.122;2023-11-25T06:08:07;6.20;66.70
14873;DHT22;7528;48.576;19.122;2023-11-25T06:13:10;6.20;66.40
14873;DHT22;7528;48.576;19.122;2023-11-25T06:18:13;6.20;65.90
14873;DHT22;7528;48.576;19.122;2023-11-25T06:23:15;6.20;66.30
14873;DHT22;7528;48.576;19.122;2023-11-25T06:28:19;6.10;66.90
14873;DHT22;7528;48.576;19.122;2023-11-25T06:33:25;6.10;67.20
14873;DHT22;7528;48.576;19.122;2023-11-25T06:38:27;6.10;67.50
14873;DHT22;7528;48.576;19.122;2023-11-25T06:43:31;6.10;67.50
14873;DHT22;7528;48.576;19.122;2023-11-25T06:48:33;6.20;67.90
14873;DHT22;7528;48.576;19.122;2023-11-25T06:53:36;6.20;67.90
14873;DHT22;7528;48.576;19.122;2023-11-25T06:58:42;6.20;68.30
14873;DHT22;7528;48.576;19.122;2023-11-25T07:03:44;6.30;67.90
14873;DHT22;7528;48.576;19.122;2023-11-25T07:08:47;6.30;67.20
14873;DHT22;7528;48.576;19.122;2023-11-25T07:13:51;6.30;66.90
14873;DHT22;7528;48.576;19.122;2023-11-25T07:18:55;6.30;66.90
14873;DHT22;7528;48.576;19.122;2023-11-25T07:23:57;6.20;67.40
14873;DHT22;7528;48.576;19.122;2023-11-25T07:29:01;6.20;67.30
14873;DHT22;7528;48.576;19.122;2023-11-25T07:34:04;6.30;67.50
14873;DHT22;7528;48.576;19.122;2023-11-25T07:39:07;6.20;67.20
14873;DHT22;7528;48.576;19.122;2023-11-25T07:44:10;6.30;67.90
14873;DHT22;7528;48.576;19.122;2023-11-25T07:49:13;6.50;68.10
14873;DHT22;7528;48.576;19.122;2023-11-25T07:54:16;6.80;67.40
14873;DHT22;7528;48.576;19.122;2023-11-25T07:59:20;7.00;66.20
14873;DHT22;7528;48.576;19.122;2023-11-25T08:04:22;7.40;65.90
14873;DHT22;7528;48.576;19.122;2023-11-25T08:09:25;7.60;63.60
14873;DHT22;7528;48.576;19.122;2023-11-25T08:14:29;7.60;63.20
14873;DHT22;7528;48.576;19.122;2023-11-25T08:19:32;7.60;64.30
14873;DHT22;7528;48.576;19.122;2023-11-25T08:24:34;7.60;63.80
14873;DHT22;7528;48.576;19.122;2023-11-25T08:29:38;7.70;64.10
14873;DHT22;7528;48.576;19.122;2023-11-25T08:34:40;7.80;62.50
14873;DHT22;7528;48.576;19.122;2023-11-25T08:39:42;8.00;62.90
14873;DHT22;7528;48.576;19.122;2023-11-25T08:44:48;8.20;62.10
14873;DHT22;7528;48.576;19.122;2023-11-25T08:49:51;8.10;62.60
14873;DHT22;7528;48.576;19.122;2023-11-25T08:54:53;7.80;65.80
14873;DHT22;7528;48.576;19.122;2023-11-25T08:59:57;7.90;65.60
14873;DHT22;7528;48.576;19.122;2023-11-25T09:04:59;8.20;64.80
14873;DHT22;7528;48.576;19.122;2023-11-25T09:10:02;8.70;63.60
14873;DHT22;7528;48.576;19.122;2023-11-25T09:15:08;9.30;59.90
14873;DHT22;7528;48.576;19.122;2023-11-25T09:20:15;9.30;59.30
14873;DHT22;7528;48.576;19.122;2023-11-25T09:25:21;9.00;58.90
14873;DHT22;7528;48.576;19.122;2023-11-25T09:30:27;9.10;57.80
14873;DHT22;7528;48.576;19.122;2023-11-25T09:35:29;11.70;55.90
14873;DHT22;7528;48.576;19.122;2023-11-25T09:40:32;15.70;45.90
14873;DHT22;7528;48.576;19.122;2023-11-25T09:45:35;19.30;39.00
14873;DHT22;7528;48.576;19.122;2023-11-25T09:50:38;20.90;32.70
14873;DHT22;7528;48.576;19.122;2023-11-25T09:55:42;21.60;30.90
14873;DHT22;7528;48.576;19.122;2023-11-25T10:00:51;23.60;29.20
14873;DHT22;7528;48.576;19.122;2023-11-25T10:05:53;25.20;27.30
14873;DHT22;7528;48.576;19.122;2023-11-25T10:11:00;26.00;24.00
14873;DHT22;7528;48.576;19.122;2023-11-25T10:16:08;24.10;22.70
14873;DHT22;7528;48.576;19.122;2023-11-25T10:21:11;24.40;23.80
14873;DHT22;7528;48.576;19.122;2023-11-25T10:26:15;25.50;20.50
14873;DHT22;7528;48.576;19.122;2023-11-25T10:31:20;25.00;20.80
14873;DHT22;7528;48.576;19.122;2023-11-25T10:36:24;23.40;21.50
14873;DHT22;7528;48.576;19.122;2023-11-25T10:41:27;22.50;22.50
14873;DHT22;7528;48.576;19.122;2023-11-25T10:46:38;22.80;22.90
14873;DHT22;7528;48.576;19.122;2023-11-25T10:51:43;23.40;22.00
14873;DHT22;7528;48.576;19.122;2023-11-25T10:56:46;25.40;20.70
14873;DHT22;7528;48.576;19.122;2023-11-25T11:01:51;26.70;20.50
14873;DHT22;7528;48.576;19.122;2023-11-25T11:06:57;27.60;18.40
14873;DHT22;7528;48.576;19.122;2023-11-25T11:12:04;28.00;18.30
14873;DHT22;7528;48.576;19.122;2023-11-25T11:17:13;28.40;17.40
14873;DHT22;7528;48.576;19.122;2023-11-25T11:22:21;28.60;17.20
14873;DHT22;7528;48.576;19.122;2023-11-25T11:27:29;28.70;17.30
14873;DHT22;7528;48.576;19.122;2023-11-25T11:32:35;27.50;17.00
14873;DHT22;7528;48.576;19.122;2023-11-25T11:37:38;24.90;17.90
14873;DHT22;7528;48.576;19.122;2023-11-25T11:42:49;22.20;19.50
14873;DHT22;7528;48.576;19.122;2023-11-25T11:47:54;21.10;20.70
14873;DHT22;7528;48.576;19.122;2023-11-25T11:53:13;20.60;21.90
14873;DHT22;7528;48.576;19.122;2023-11-25T11:58:16;20.40;22.10
14873;DHT22;7528;48.576;19.122;2023-11-25T12:03:21;22.40;21.60
14873;DHT22;7528;48.576;19.122;2023-11-25T12:08:24;24.90;18.90
14873;DHT22;7528;48.576;19.122;2023-11-25T12:13:27;26.60;17.70
14873;DHT22;7528;48.576;19.122;2023-11-25T12:18:32;27.60;16.80
14873;DHT22;7528;48.576;19.122;2023-11-25T12:23:35;27.80;15.60
14873;DHT22;7528;48.576;19.122;2023-11-25T12:28:41;27.70;15.50
14873;DHT22;7528;48.576;19.122;2023-11-25T12:33:45;26.00;16.10
14873;DHT22;7528;48.576;19.122;2023-11-25T12:38:47;26.20;15.70
14873;DHT22;7528;48.576;19.122;2023-11-25T12:44:07;24.60;16.90
14873;DHT22;7528;48.576;19.122;2023-11-25T12:49:22;23.50;18.10
14873;DHT22;7528;48.576;19.122;2023-11-25T12:54:25;21.90;18.80
14873;DHT22;7528;48.576;19.122;2023-11-25T12:59:28;21.10;20.10
14873;DHT22;7528;48.576;19.122;2023-11-25T13:04:32;22.20;19.50
14873;DHT22;7528;48.576;19.122;2023-11-25T13:09:34;22.90;18.40
14873;DHT22;7528;48.576;19.122;2023-11-25T13:14:40;22.40;18.50
14873;DHT22;7528;48.576;19.122;2023-11-25T13:19:44;22.40;19.10
14873;DHT22;7528;48.576;19.122;2023-11-25T13:24:46;23.00;18.90
14873;DHT22;7528;48.576;19.122;2023-11-25T13:29:49;23.60;17.90
14873;DHT22;7528;48.576;19.122;2023-11-25T13:34:52;23.50;17.80
14873;DHT22;7528;48.576;19.122;2023-11-25T13:39:55;23.10;17.90
14873;DHT22;7528;48.576;19.122;2023-11-25T13:44:57;22.60;18.70
14873;DHT22;7528;48.576;19.122;2023-11-25T13:50:01;22.20;19.20
14873;DHT22;7528;48.576;19.122;2023-11-25T13:55:06;21.70;19.20
14873;DHT22;7528;48.576;19.122;2023-11-25T14:00:11;20.50;20.60
14873;DHT22;7528;48.576;19.122;2023-11-25T14:05:17;19.00;21.80
14873;DHT22;7528;48.576;19.122;2023-11-25T14:10:19;17.60;23.40
14873;DHT22;7528;48.576;19.122;2023-11-25T14:15:22;16.80;24.40
14873;DHT22;7528;48.576;19.122;2023-11-25T14:20:26;16.00;25.70
14873;DHT22;7528;48.576;19.122;2023-11-25T14:25:29;15.20;26.30
14873;DHT22;7528;48.576;19.122;2023-11-25T14:30:31;14.70;27.60
14873;DHT22;7528;48.576;19.122;2023-11-25T14:35:35;14.20;28.30
14873;DHT22;7528;48.576;19.122;2023-11-25T14:40:38;13.70;28.70
14873;DHT22;7528;48.576;19.122;2023-11-25T14:45:40;13.30;28.90
14873;DHT22;7528;48.576;19.122;2023-11-25T14:50:44;12.80;29.90
14873;DHT22;7528;48.576;19.122;2023-11-25T14:55:47;12.40;30.00
14873;DHT22;7528;48.576;19.122;2023-11-25T15:00:51;11.90;30.80
14873;DHT22;7528;48.576;19.122;2023-11-25T15:05:55;11.40;31.80
14873;DHT22;7528;48.576;19.122;2023-11-25T15:10:57;11.20;32.60
14873;DHT22;7528;48.576;19.122;2023-11-25T15:16:00;11.00;33.30
14873;DHT22;7528;48.576;19.122;2023-11-25T15:21:04;10.80;34.20
14873;DHT22;7528;48.576;19.122;2023-11-25T15:26:08;10.70;35.10
14873;DHT22;7528;48.576;19.122;2023-11-25T15:31:13;10.50;36.90
14873;DHT22;7528;48.576;19.122;2023-11-25T15:36:17;10.30;37.30
14873;DHT22;7528;48.576;19.122;2023-11-25T15:41:20;10.10;37.20
14873;DHT22;7528;48.576;19.122;2023-11-25T15:46:22;9.90;38.10
14873;DHT22;7528;48.576;19.122;2023-11-25T15:51:26;9.60;38.60
14873;DHT22;7528;48.576;19.122;2023-11-25T15:56:29;9.20;39.00
14873;DHT22;7528;48.576;19.122;2023-11-25T16:01:32;8.90;39.80
14873;DHT22;7528;48.576;19.122;2023-11-25T16:06:36;8.90;41.10
14873;DHT22;7528;48.576;19.122;2023-11-25T16:11:40;8.70;40.90
14873;DHT22;7528;48.576;19.122;2023-11-25T16:16:44;8.50;40.70
14873;DHT22;7528;48.576;19.122;2023-11-25T16:21:48;8.40;42.00
14873;DHT22;7528;48.576;19.122;2023-11-25T16:26:53;8.30;42.80
14873;DHT22;7528;48.576;19.122;2023-11-25T16:31:56;8.20;41.70
14873;DHT22;7528;48.576;19.122;2023-11-25T16:37:00;8.10;41.60
14873;DHT22;7528;48.576;19.122;2023-11-25T16:42:02;7.90;42.90
14873;DHT22;7528;48.576;19.122;2023-11-25T16:47:05;7.80;42.30
14873;DHT22;7528;48.576;19.122;2023-11-25T16:52:09;7.60;42.90
14873;DHT22;7528;48.576;19.122;2023-11-25T16:57:11;7.50;44.30
14873;DHT22;7528;48.576;19.122;2023-11-25T17:02:14;7.40;44.20
14873;DHT22;7528;48.576;19.122;2023-11-25T17:07:17;7.40;44.30
14873;DHT22;7528;48.576;19.122;2023-11-25T17:12:20;7.20;45.50
14873;DHT22;7528;48.576;19.122;2023-11-25T17:17:22;7.10;45.40
14873;DHT22;7528;48.576;19.122;2023-11-25T17:22:26;7.00;45.00
14873;DHT22;7528;48.576;19.122;2023-11-25T17:27:30;6.90;45.50
14873;DHT22;7528;48.576;19.122;2023-11-25T17:32:34;6.80;45.80
14873;DHT22;7528;48.576;19.122;2023-11-25T17:37:38;6.60;46.30
14873;DHT22;7528;48.576;19.122;2023-11-25T17:42:40;6.40;47.00
14873;DHT22;7528;48.576;19.122;2023-11-25T17:47:44;6.30;47.60
14873;DHT22;7528;48.576;19.122;2023-11-25T17:52:48;6.20;47.50
14873;DHT22;7528;48.576;19.122;2023-11-25T17:57:51;6.20;48.40
14873;DHT22;7528;48.576;19.122;2023-11-25T18:02:53;6.20;48.10
14873;DHT22;7528;48.576;19.122;2023-11-25T18:07:57;6.00;48.20
14873;DHT22;7528;48.576;19.122;2023-11-25T18:12:59;6.00;48.40
14873;DHT22;7528;48.576;19.122;2023-11-25T18:18:02;5.90;48.90
14873;DHT22;7528;48.576;19.122;2023-11-25T18:23:05;5.90;48.90
14873;DHT22;7528;48.576;19.122;2023-11-25T18:28:08;5.80;49.60
14873;DHT22;7528;48.576;19.122;2023-11-25T18:33:10;5.60;50.00
14873;DHT22;7528;48.576;19.122;2023-11-25T18:38:15;5.70;49.80
14873;DHT22;7528;48.576;19.122;2023-11-25T18:43:18;5.60;50.20
14873;DHT22;7528;48.576;19.122;2023-11-25T18:48:21;5.50;50.10
14873;DHT22;7528;48.576;19.122;2023-11-25T18:53:24;5.50;50.60
14873;DHT22;7528;48.576;19.122;2023-11-25T18:58:27;5.50;51.10
14873;DHT22;7528;48.576;19.122;2023-11-25T19:03:30;5.50;51.00
14873;DHT22;7528;48.576;19.122;2023-11-25T19:08:33;5.50;51.00
14873;DHT22;7528;48.576;19.122;2023-11-25T19:13:36;5.40;50.80
14873;DHT22;7528;48.576;19.122;2023-11-25T19:18:38;5.40;50.80
14873;DHT22;7528;48.576;19.122;2023-11-25T20:31:18;4.70;54.30
14873;DHT22;7528;48.576;19.122;2023-11-25T20:36:21;4.70;54.60
14873;DHT22;7528;48.576;19.122;2023-11-25T20:41:24;4.70;54.50
14873;DHT22;7528;48.576;19.122;2023-11-25T20:46:28;4.70;54.60
14873;DHT22;7528;48.576;19.122;2023-11-25T20:51:30;4.60;54.70
14873;DHT22;7528;48.576;19.122;2023-11-25T20:56:33;4.60;54.60
14873;DHT22;7528;48.576;19.122;2023-11-25T21:01:37;4.60;54.70
14873;DHT22;7528;48.576;19.122;2023-11-25T21:06:39;4.60;55.20
14873;DHT22;7528;48.576;19.122;2023-11-25T21:11:42;4.60;54.90
14873;DHT22;7528;48.576;19.122;2023-11-25T21:16:46;4.60;54.50
14873;DHT22;7528;48.576;19.122;2023-11-25T21:21:50;4.50;54.40
14873;DHT22;7528;48.576;19.122;2023-11-25T21:26:53;4.50;54.60
14873;DHT22;7528;48.576;19.122;2023-11-25T21:31:56;4.50;54.80
14873;DHT22;7528;48.576;19.122;2023-11-25T21:37:03;4.40;56.20
14873;DHT22;7528;48.576;19.122;2023-11-25T21:42:06;4.30;56.50
14873;DHT22;7528;48.576;19.122;2023-11-25T21:47:09;4.30;56.80
14873;DHT22;7528;48.576;19.122;2023-11-25T21:52:12;4.40;56.50
14873;DHT22;7528;48.576;19.122;2023-11-25T21:57:14;4.20;56.70
14873;DHT22;7528;48.576;19.122;2023-11-25T22:02:18;4.20;56.90
14873;DHT22;7528;48.576;19.122;2023-11-25T22:07:20;4.10;56.80
14873;DHT22;7528;48.576;19.122;2023-11-25T22:12:23;4.10;56.60
14873;DHT22;7528;48.576;19.122;2023-11-25T22:17:26;4.10;56.30
14873;DHT22;7528;48.576;19.122;2023-11-25T22:22:29;4.10;56.70
14873;DHT22;7528;48.576;19.122;2023-11-25T22:27:32;4.10;56.70
14873;DHT22;7528;48.576;19.122;2023-11-25T22:32:35;4.10;56.90
14873;DHT22;7528;48.576;19.122;2023-11-25T22:37:37;4.30;56.50
14873;DHT22;7528;48.576;19.122;2023-11-25T22:42:40;4.20;56.30
14873;DHT22;7528;48.576;19.122;2023-11-25T22:47:44;4.20;56.30
14873;DHT22;7528;48.576;19.122;2023-11-25T22:52:46;4.10;55.80
14873;DHT22;7528;48.576;19.122;2023-11-25T22:57:51;4.10;55.70
14873;DHT22;7528;48.576;19.122;2023-11-25T23:02:54;4.00;56.30
14873;DHT22;7528;48.576;19.122;2023-11-25T23:07:57;4.00;56.70
14873;DHT22;7528;48.576;19.122;2023-11-25T23:12:59;4.00;57.90
14873;DHT22;7528;48.576;19.122;2023-11-25T23:18:03;4.00;56.90
14873;DHT22;7528;48.576;19.122;2023-11-25T23:23:06;3.90;58.00
14873;DHT22;7528;48.576;19.122;2023-11-25T23:28:08;3.80;58.00
14873;DHT22;7528;48.576;19.122;2023-11-25T23:33:12;3.80;58.10
14873;DHT22;7528;48.576;19.122;2023-11-25T23:38:15;3.80;58.40
14873;DHT22;7528;48.576;19.122;2023-11-25T23:43:17;3.80;58.20
14873;DHT22;7528;48.576;19.122;2023-11-25T23:48:21;3.80;58.40
14873;DHT22;7528;48.576;19.122;2023-11-25T23:53:24;3.70;58.40
14873;DHT22;7528;48.576;19.122;2023-11-25T23:58:26;3.70;58.30
